sensor_id;sensor_type;location;lat;lon;timestamp;P1;durP1;ratioP1;P2;durP2;ratioP2
7523;SDS011;3803;51.666;7.630;2023-06-14T00:00:14;6.13;;;4.80;;
7523;SDS011;3803;51.666;7.630;2023-06-14T00:00:35;7.75;;;5.00;;
7523;SDS011;3803;51.666;7.630;2023-06-14T00:00:56;7.72;;;5.10;;
7523;SDS011;3803;51.666;7.630;2023-06-14T00:01:17;8.63;;;5.32;;
7523;SDS011;3803;51.666;7.630;2023-06-14T00:01:40;7.43;;;4.93;;
7523;SDS011;3803;51.666;7.630;2023-06-14T00:02:01;7.93;;;4.70;;
7523;SDS011;3803;51.666;7.630;2023-06-14T00:02:21;9.23;;;4.40;;
7523;SDS011;3803;51.666;7.630;2023-06-14T00:02:42;9.75;;;4.50;;
7523;SDS011;3803;51.666;7.630;2023-06-14T00:03:03;10.88;;;4.70;;
7523;SDS011;3803;51.666;7.630;2023-06-14T00:03:24;8.00;;;4.80;;
7523;SDS011;3803;51.666;7.630;2023-06-14T00:03:44;7.28;;;4.80;;
7523;SDS011;3803;51.666;7.630;2023-06-14T00:04:05;6.95;;;4.82;;
7523;SDS011;3803;51.666;7.630;2023-06-14T00:04:29;8.30;;;5.03;;
7523;SDS011;3803;51.666;7.630;2023-06-14T00:04:49;8.57;;;4.70;;
7523;SDS011;3803;51.666;7.630;2023-06-14T00:05:12;8.02;;;4.97;;
7523;SDS011;3803;51.666;7.630;2023-06-14T00:05:33;8.98;;;4.68;;
7523;SDS011;3803;51.666;7.630;2023-06-14T00:05:59;8.35;;;4.40;;
7523;SDS011;3803;51.666;7.630;2023-06-14T00:06:20;7.95;;;4.32;;
7523;SDS011;3803;51.666;7.630;2023-06-14T00:06:41;6.85;;;4.50;;
7523;SDS011;3803;51.666;7.630;2023-06-14T00:07:02;6.43;;;4.30;;
7523;SDS011;3803;51.666;7.630;2023-06-14T00:07:33;6.73;;;4.50;;
7523;SDS011;3803;51.666;7.630;2023-06-14T00:07:58;7.18;;;4.60;;
7523;SDS011;3803;51.666;7.630;2023-06-14T00:08:20;7.78;;;4.55;;
7523;SDS011;3803;51.666;7.630;2023-06-14T00:08:43;7.03;;;4.50;;
7523;SDS011;3803;51.666;7.630;2023-06-14T00:09:04;5.72;;;4.47;;
7523;SDS011;3803;51.666;7.630;2023-06-14T00:09:25;5.57;;;4.57;;
7523;SDS011;3803;51.666;7.630;2023-06-14T00:09:46;5.60;;;4.50;;
7523;SDS011;3803;51.666;7.630;2023-06-14T00:10:07;6.22;;;4.63;;
7523;SDS011;3803;51.666;7.630;2023-06-14T00:10:28;8.50;;;4.93;;
7523;SDS011;3803;51.666;7.630;2023-06-14T00:10:51;8.32;;;4.90;;
7523;SDS011;3803;51.666;7.630;2023-06-14T00:11:12;7.72;;;4.72;;
7523;SDS011;3803;51.666;7.630;2023-06-14T00:11:33;8.70;;;4.40;;
7523;SDS011;3803;51.666;7.630;2023-06-14T00:11:54;11.15;;;4.53;;
7523;SDS011;3803;51.666;7.630;2023-06-14T00:12:14;10.60;;;4.55;;
7523;SDS011;3803;51.666;7.630;2023-06-14T00:12:35;9.00;;;4.50;;
7523;SDS011;3803;51.666;7.630;2023-06-14T00:12:56;6.75;;;4.60;;
7523;SDS011;3803;51.666;7.630;2023-06-14T00:13:17;6.60;;;4.50;;
7523;SDS011;3803;51.666;7.630;2023-06-14T00:13:37;5.88;;;4.40;;
7523;SDS011;3803;51.666;7.630;2023-06-14T00:13:58;5.68;;;4.15;;
7523;SDS011;3803;51.666;7.630;2023-06-14T00:14:19;5.40;;;4.10;;
7523;SDS011;3803;51.666;7.630;2023-06-14T00:14:40;5.63;;;4.30;;
7523;SDS011;3803;51.666;7.630;2023-06-14T00:15:01;6.65;;;4.53;;
7523;SDS011;3803;51.666;7.630;2023-06-14T00:15:23;7.63;;;4.70;;
7523;SDS011;3803;51.666;7.630;2023-06-14T00:15:44;7.53;;;4.60;;
7523;SDS011;3803;51.666;7.630;2023-06-14T00:16:05;7.03;;;4.40;;
7523;SDS011;3803;51.666;7.630;2023-06-14T00:16:26;6.28;;;4.28;;
7523;SDS011;3803;51.666;7.630;2023-06-14T00:16:46;5.50;;;4.10;;
7523;SDS011;3803;51.666;7.630;2023-06-14T00:17:08;5.40;;;3.95;;
7523;SDS011;3803;51.666;7.630;2023-06-14T00:17:29;5.22;;;4.10;;
7523;SDS011;3803;51.666;7.630;2023-06-14T00:17:51;6.43;;;4.22;;
7523;SDS011;3803;51.666;7.630;2023-06-14T00:18:12;6.80;;;4.43;;
7523;SDS011;3803;51.666;7.630;2023-06-14T00:18:33;7.20;;;4.70;;
7523;SDS011;3803;51.666;7.630;2023-06-14T00:18:53;5.82;;;4.70;;
7523;SDS011;3803;51.666;7.630;2023-06-14T00:19:14;5.75;;;4.40;;
7523;SDS011;3803;51.666;7.630;2023-06-14T00:19:36;6.10;;;4.10;;
7523;SDS011;3803;51.666;7.630;2023-06-14T00:19:59;6.55;;;4.13;;
7523;SDS011;3803;51.666;7.630;2023-06-14T00:20:20;7.28;;;4.30;;
7523;SDS011;3803;51.666;7.630;2023-06-14T00:20:41;7.72;;;4.40;;
7523;SDS011;3803;51.666;7.630;2023-06-14T00:21:02;7.78;;;4.70;;
7523;SDS011;3803;51.666;7.630;2023-06-14T00:21:24;8.18;;;4.80;;
7523;SDS011;3803;51.666;7.630;2023-06-14T00:21:44;9.00;;;4.50;;
7523;SDS011;3803;51.666;7.630;2023-06-14T00:22:05;7.75;;;4.30;;
7523;SDS011;3803;51.666;7.630;2023-06-14T00:22:26;7.35;;;4.25;;
7523;SDS011;3803;51.666;7.630;2023-06-14T00:22:48;6.68;;;4.35;;
7523;SDS011;3803;51.666;7.630;2023-06-14T00:23:09;6.65;;;4.40;;
7523;SDS011;3803;51.666;7.630;2023-06-14T00:23:30;6.63;;;4.60;;
7523;SDS011;3803;51.666;7.630;2023-06-14T00:23:51;6.80;;;4.75;;
7523;SDS011;3803;51.666;7.630;2023-06-14T00:24:11;6.77;;;4.80;;
7523;SDS011;3803;51.666;7.630;2023-06-14T00:24:32;6.93;;;4.78;;
7523;SDS011;3803;51.666;7.630;2023-06-14T00:24:53;6.18;;;4.63;;
7523;SDS011;3803;51.666;7.630;2023-06-14T00:25:14;6.20;;;4.35;;
7523;SDS011;3803;51.666;7.630;2023-06-14T00:25:34;6.00;;;4.27;;
7523;SDS011;3803;51.666;7.630;2023-06-14T00:25:55;6.03;;;4.20;;
7523;SDS011;3803;51.666;7.630;2023-06-14T00:26:16;7.10;;;4.40;;
7523;SDS011;3803;51.666;7.630;2023-06-14T00:26:38;6.45;;;4.22;;
7523;SDS011;3803;51.666;7.630;2023-06-14T00:26:59;5.85;;;4.10;;
7523;SDS011;3803;51.666;7.630;2023-06-14T00:27:20;7.70;;;4.20;;
7523;SDS011;3803;51.666;7.630;2023-06-14T00:27:40;7.80;;;4.10;;
7523;SDS011;3803;51.666;7.630;2023-06-14T00:28:01;7.30;;;4.23;;
7523;SDS011;3803;51.666;7.630;2023-06-14T00:28:22;5.32;;;4.13;;
7523;SDS011;3803;51.666;7.630;2023-06-14T00:28:43;5.50;;;4.20;;
7523;SDS011;3803;51.666;7.630;2023-06-14T00:29:03;5.10;;;4.00;;
7523;SDS011;3803;51.666;7.630;2023-06-14T00:29:24;8.05;;;4.10;;
7523;SDS011;3803;51.666;7.630;2023-06-14T00:29:45;7.90;;;4.10;;
7523;SDS011;3803;51.666;7.630;2023-06-14T00:30:06;7.40;;;4.10;;
7523;SDS011;3803;51.666;7.630;2023-06-14T00:30:27;5.70;;;4.05;;
7523;SDS011;3803;51.666;7.630;2023-06-14T00:30:50;5.93;;;4.00;;
7523;SDS011;3803;51.666;7.630;2023-06-14T00:31:11;6.37;;;4.30;;
7523;SDS011;3803;51.666;7.630;2023-06-14T00:31:32;5.70;;;4.30;;
7523;SDS011;3803;51.666;7.630;2023-06-14T00:31:53;6.82;;;4.30;;
7523;SDS011;3803;51.666;7.630;2023-06-14T00:32:13;10.10;;;4.20;;
7523;SDS011;3803;51.666;7.630;2023-06-14T00:32:34;10.10;;;4.23;;
7523;SDS011;3803;51.666;7.630;2023-06-14T00:32:55;7.65;;;3.92;;
7523;SDS011;3803;51.666;7.630;2023-06-14T00:33:16;5.00;;;3.80;;
7523;SDS011;3803;51.666;7.630;2023-06-14T00:33:37;5.82;;;4.13;;
7523;SDS011;3803;51.666;7.630;2023-06-14T00:33:59;5.60;;;4.20;;
7523;SDS011;3803;51.666;7.630;2023-06-14T00:34:19;6.70;;;4.22;;
7523;SDS011;3803;51.666;7.630;2023-06-14T00:34:40;7.13;;;4.03;;
7523;SDS011;3803;51.666;7.630;2023-06-14T00:35:02;7.45;;;4.03;;
7523;SDS011;3803;51.666;7.630;2023-06-14T00:35:23;5.82;;;4.10;;
7523;SDS011;3803;51.666;7.630;2023-06-14T00:35:44;6.53;;;4.30;;
7523;SDS011;3803;51.666;7.630;2023-06-14T00:36:05;8.13;;;4.28;;
7523;SDS011;3803;51.666;7.630;2023-06-14T00:36:26;9.55;;;4.47;;
7523;SDS011;3803;51.666;7.630;2023-06-14T00:36:46;9.15;;;4.40;;
7523;SDS011;3803;51.666;7.630;2023-06-14T00:37:08;8.07;;;4.60;;
7523;SDS011;3803;51.666;7.630;2023-06-14T00:37:29;7.05;;;4.47;;
7523;SDS011;3803;51.666;7.630;2023-06-14T00:37:50;7.97;;;4.70;;
7523;SDS011;3803;51.666;7.630;2023-06-14T00:38:10;8.52;;;4.70;;
7523;SDS011;3803;51.666;7.630;2023-06-14T00:38:31;8.23;;;4.57;;
7523;SDS011;3803;51.666;7.630;2023-06-14T00:38:52;12.13;;;4.60;;
7523;SDS011;3803;51.666;7.630;2023-06-14T00:39:13;11.80;;;4.50;;
7523;SDS011;3803;51.666;7.630;2023-06-14T00:39:33;11.00;;;4.30;;
7523;SDS011;3803;51.666;7.630;2023-06-14T00:39:55;6.20;;;4.10;;
7523;SDS011;3803;51.666;7.630;2023-06-14T00:40:16;7.73;;;4.13;;
7523;SDS011;3803;51.666;7.630;2023-06-14T00:40:39;8.50;;;4.20;;
7523;SDS011;3803;51.666;7.630;2023-06-14T00:40:59;8.40;;;4.10;;
7523;SDS011;3803;51.666;7.630;2023-06-14T00:41:20;5.30;;;4.05;;
7523;SDS011;3803;51.666;7.630;2023-06-14T00:41:41;5.60;;;4.30;;
7523;SDS011;3803;51.666;7.630;2023-06-14T00:42:01;5.90;;;4.50;;
7523;SDS011;3803;51.666;7.630;2023-06-14T00:42:23;6.40;;;4.38;;
7523;SDS011;3803;51.666;7.630;2023-06-14T00:42:47;8.18;;;4.38;;
7523;SDS011;3803;51.666;7.630;2023-06-14T00:43:08;7.80;;;4.30;;
7523;SDS011;3803;51.666;7.630;2023-06-14T00:43:29;7.45;;;4.50;;
7523;SDS011;3803;51.666;7.630;2023-06-14T00:43:50;6.40;;;4.50;;
7523;SDS011;3803;51.666;7.630;2023-06-14T00:44:12;6.78;;;4.55;;
7523;SDS011;3803;51.666;7.630;2023-06-14T00:44:36;7.20;;;4.35;;
7523;SDS011;3803;51.666;7.630;2023-06-14T00:44:58;8.02;;;4.22;;
7523;SDS011;3803;51.666;7.630;2023-06-14T00:45:19;8.20;;;4.22;;
7523;SDS011;3803;51.666;7.630;2023-06-14T00:45:41;6.93;;;3.97;;
7523;SDS011;3803;51.666;7.630;2023-06-14T00:46:01;4.73;;;3.53;;
7523;SDS011;3803;51.666;7.630;2023-06-14T00:46:24;6.20;;;3.90;;
7523;SDS011;3803;51.666;7.630;2023-06-14T00:46:47;7.20;;;3.90;;
7523;SDS011;3803;51.666;7.630;2023-06-14T00:47:09;7.43;;;4.00;;
7523;SDS011;3803;51.666;7.630;2023-06-14T00:47:29;5.50;;;3.90;;
7523;SDS011;3803;51.666;7.630;2023-06-14T00:47:50;5.60;;;3.92;;
7523;SDS011;3803;51.666;7.630;2023-06-14T00:48:15;6.20;;;4.10;;
7523;SDS011;3803;51.666;7.630;2023-06-14T00:48:37;6.45;;;4.07;;
7523;SDS011;3803;51.666;7.630;2023-06-14T00:49:00;7.00;;;4.30;;
7523;SDS011;3803;51.666;7.630;2023-06-14T00:49:22;6.45;;;4.10;;
7523;SDS011;3803;51.666;7.630;2023-06-14T00:49:44;7.07;;;4.00;;
7523;SDS011;3803;51.666;7.630;2023-06-14T00:50:08;7.88;;;3.83;;
7523;SDS011;3803;51.666;7.630;2023-06-14T00:50:30;6.70;;;4.10;;
7523;SDS011;3803;51.666;7.630;2023-06-14T00:50:52;6.20;;;4.28;;
7523;SDS011;3803;51.666;7.630;2023-06-14T00:51:14;6.10;;;4.45;;
7523;SDS011;3803;51.666;7.630;2023-06-14T00:51:35;6.40;;;4.40;;
7523;SDS011;3803;51.666;7.630;2023-06-14T00:51:57;5.68;;;4.03;;
7523;SDS011;3803;51.666;7.630;2023-06-14T00:52:18;5.23;;;4.00;;
7523;SDS011;3803;51.666;7.630;2023-06-14T00:52:39;4.63;;;3.70;;
7523;SDS011;3803;51.666;7.630;2023-06-14T00:53:00;5.10;;;3.83;;
7523;SDS011;3803;51.666;7.630;2023-06-14T00:53:21;8.45;;;4.00;;
7523;SDS011;3803;51.666;7.630;2023-06-14T00:53:43;9.10;;;4.10;;
7523;SDS011;3803;51.666;7.630;2023-06-14T00:54:07;9.45;;;4.15;;
7523;SDS011;3803;51.666;7.630;2023-06-14T00:54:29;7.45;;;4.43;;
7523;SDS011;3803;51.666;7.630;2023-06-14T00:54:49;7.68;;;4.68;;
7523;SDS011;3803;51.666;7.630;2023-06-14T00:55:11;8.07;;;4.90;;
7523;SDS011;3803;51.666;7.630;2023-06-14T00:55:31;8.45;;;4.40;;
7523;SDS011;3803;51.666;7.630;2023-06-14T00:55:53;8.65;;;4.40;;
7523;SDS011;3803;51.666;7.630;2023-06-14T00:56:14;7.78;;;4.28;;
7523;SDS011;3803;51.666;7.630;2023-06-14T00:56:36;7.70;;;4.20;;
7523;SDS011;3803;51.666;7.630;2023-06-14T00:56:57;8.77;;;4.30;;
7523;SDS011;3803;51.666;7.630;2023-06-14T00:57:18;8.55;;;4.30;;
7523;SDS011;3803;51.666;7.630;2023-06-14T00:57:41;7.20;;;4.50;;
7523;SDS011;3803;51.666;7.630;2023-06-14T00:58:01;6.13;;;4.50;;
7523;SDS011;3803;51.666;7.630;2023-06-14T00:58:23;7.60;;;4.50;;
7523;SDS011;3803;51.666;7.630;2023-06-14T00:58:43;7.25;;;4.15;;
7523;SDS011;3803;51.666;7.630;2023-06-14T00:59:04;7.65;;;4.20;;
7523;SDS011;3803;51.666;7.630;2023-06-14T00:59:26;5.82;;;3.85;;
7523;SDS011;3803;51.666;7.630;2023-06-14T00:59:48;6.03;;;3.53;;
7523;SDS011;3803;51.666;7.630;2023-06-14T01:00:10;7.25;;;3.60;;
7523;SDS011;3803;51.666;7.630;2023-06-14T01:00:32;7.03;;;4.00;;
7523;SDS011;3803;51.666;7.630;2023-06-14T01:00:53;6.97;;;4.00;;
7523;SDS011;3803;51.666;7.630;2023-06-14T01:01:14;6.25;;;4.10;;
7523;SDS011;3803;51.666;7.630;2023-06-14T01:01:35;5.65;;;3.90;;
7523;SDS011;3803;51.666;7.630;2023-06-14T01:01:57;6.47;;;4.18;;
7523;SDS011;3803;51.666;7.630;2023-06-14T01:02:17;5.70;;;3.80;;
7523;SDS011;3803;51.666;7.630;2023-06-14T01:02:38;5.57;;;4.03;;
7523;SDS011;3803;51.666;7.630;2023-06-14T01:02:59;5.28;;;3.90;;
7523;SDS011;3803;51.666;7.630;2023-06-14T01:03:21;6.40;;;4.20;;
7523;SDS011;3803;51.666;7.630;2023-06-14T01:03:43;6.15;;;4.20;;
7523;SDS011;3803;51.666;7.630;2023-06-14T01:04:03;5.47;;;4.03;;
7523;SDS011;3803;51.666;7.630;2023-06-14T01:04:25;5.65;;;4.10;;
7523;SDS011;3803;51.666;7.630;2023-06-14T01:04:46;6.85;;;4.18;;
7523;SDS011;3803;51.666;7.630;2023-06-14T01:05:08;6.82;;;4.15;;
7523;SDS011;3803;51.666;7.630;2023-06-14T01:05:34;5.55;;;4.18;;
7523;SDS011;3803;51.666;7.630;2023-06-14T01:06:00;5.82;;;4.32;;
7523;SDS011;3803;51.666;7.630;2023-06-14T01:06:44;7.50;;;4.38;;
7523;SDS011;3803;51.666;7.630;2023-06-14T01:08:51;6.47;;;3.90;;
7523;SDS011;3803;51.666;7.630;2023-06-14T01:09:37;6.25;;;4.10;;
7523;SDS011;3803;51.666;7.630;2023-06-14T01:11:17;5.90;;;4.10;;
7523;SDS011;3803;51.666;7.630;2023-06-14T01:12:30;7.93;;;4.57;;
7523;SDS011;3803;51.666;7.630;2023-06-14T01:13:43;8.10;;;4.28;;
7523;SDS011;3803;51.666;7.630;2023-06-14T01:13:48;7.25;;;4.32;;
7523;SDS011;3803;51.666;7.630;2023-06-14T01:14:10;6.20;;;4.40;;
7523;SDS011;3803;51.666;7.630;2023-06-14T01:14:33;6.30;;;4.38;;
7523;SDS011;3803;51.666;7.630;2023-06-14T01:14:55;5.85;;;4.07;;
7523;SDS011;3803;51.666;7.630;2023-06-14T01:15:17;5.22;;;4.00;;
7523;SDS011;3803;51.666;7.630;2023-06-14T01:15:41;5.72;;;4.00;;
7523;SDS011;3803;51.666;7.630;2023-06-14T01:16:04;6.60;;;4.00;;
7523;SDS011;3803;51.666;7.630;2023-06-14T01:16:38;7.65;;;3.70;;
7523;SDS011;3803;51.666;7.630;2023-06-14T01:16:59;6.45;;;3.80;;
7523;SDS011;3803;51.666;7.630;2023-06-14T01:17:22;4.90;;;4.03;;
7523;SDS011;3803;51.666;7.630;2023-06-14T01:17:45;5.57;;;4.40;;
7523;SDS011;3803;51.666;7.630;2023-06-14T01:18:12;7.32;;;4.53;;
7523;SDS011;3803;51.666;7.630;2023-06-14T01:18:37;7.65;;;4.43;;
7523;SDS011;3803;51.666;7.630;2023-06-14T01:18:58;7.63;;;4.13;;
7523;SDS011;3803;51.666;7.630;2023-06-14T01:19:19;7.00;;;3.90;;
7523;SDS011;3803;51.666;7.630;2023-06-14T01:19:45;6.30;;;3.85;;
7523;SDS011;3803;51.666;7.630;2023-06-14T01:20:08;5.28;;;3.75;;
7523;SDS011;3803;51.666;7.630;2023-06-14T01:20:33;5.85;;;4.18;;
7523;SDS011;3803;51.666;7.630;2023-06-14T01:20:58;6.10;;;4.43;;
7523;SDS011;3803;51.666;7.630;2023-06-14T01:21:22;8.38;;;4.25;;
7523;SDS011;3803;51.666;7.630;2023-06-14T01:21:44;9.30;;;4.20;;
7523;SDS011;3803;51.666;7.630;2023-06-14T01:22:04;9.70;;;4.20;;
7523;SDS011;3803;51.666;7.630;2023-06-14T01:22:26;7.22;;;4.30;;
7523;SDS011;3803;51.666;7.630;2023-06-14T01:22:52;7.00;;;4.20;;
7523;SDS011;3803;51.666;7.630;2023-06-14T01:23:18;6.80;;;4.00;;
7523;SDS011;3803;51.666;7.630;2023-06-14T01:23:39;7.07;;;4.10;;
7523;SDS011;3803;51.666;7.630;2023-06-14T01:24:00;5.60;;;4.10;;
7523;SDS011;3803;51.666;7.630;2023-06-14T01:24:23;6.18;;;4.28;;
7523;SDS011;3803;51.666;7.630;2023-06-14T01:24:46;6.30;;;4.10;;
7523;SDS011;3803;51.666;7.630;2023-06-14T01:25:06;8.30;;;4.18;;
7523;SDS011;3803;51.666;7.630;2023-06-14T01:25:27;8.85;;;3.90;;
7523;SDS011;3803;51.666;7.630;2023-06-14T01:25:48;8.10;;;3.90;;
7523;SDS011;3803;51.666;7.630;2023-06-14T01:26:12;6.60;;;3.90;;
7523;SDS011;3803;51.666;7.630;2023-06-14T01:26:36;6.35;;;3.97;;
7523;SDS011;3803;51.666;7.630;2023-06-14T01:26:59;7.90;;;4.28;;
7523;SDS011;3803;51.666;7.630;2023-06-14T01:27:22;7.22;;;4.20;;
7523;SDS011;3803;51.666;7.630;2023-06-14T01:27:44;6.82;;;4.20;;
7523;SDS011;3803;51.666;7.630;2023-06-14T01:28:05;7.17;;;4.30;;
7523;SDS011;3803;51.666;7.630;2023-06-14T01:28:31;7.32;;;4.20;;
7523;SDS011;3803;51.666;7.630;2023-06-14T01:28:54;5.53;;;3.97;;
7523;SDS011;3803;51.666;7.630;2023-06-14T01:29:18;6.35;;;4.00;;
7523;SDS011;3803;51.666;7.630;2023-06-14T01:29:39;7.63;;;4.20;;
7523;SDS011;3803;51.666;7.630;2023-06-14T01:30:09;7.50;;;4.35;;
7523;SDS011;3803;51.666;7.630;2023-06-14T01:30:31;5.80;;;4.00;;
7523;SDS011;3803;51.666;7.630;2023-06-14T01:30:53;5.68;;;4.10;;
7523;SDS011;3803;51.666;7.630;2023-06-14T01:31:19;6.63;;;4.18;;
7523;SDS011;3803;51.666;7.630;2023-06-14T01:31:44;7.50;;;4.13;;
7523;SDS011;3803;51.666;7.630;2023-06-14T01:32:06;6.00;;;4.00;;
7523;SDS011;3803;51.666;7.630;2023-06-14T01:32:27;6.97;;;3.85;;
7523;SDS011;3803;51.666;7.630;2023-06-14T01:32:50;6.20;;;3.80;;
7523;SDS011;3803;51.666;7.630;2023-06-14T01:33:12;7.35;;;3.90;;
7523;SDS011;3803;51.666;7.630;2023-06-14T01:33:34;7.30;;;4.35;;
7523;SDS011;3803;51.666;7.630;2023-06-14T01:33:56;9.93;;;4.38;;
7523;SDS011;3803;51.666;7.630;2023-06-14T01:34:17;10.20;;;4.05;;
7523;SDS011;3803;51.666;7.630;2023-06-14T01:34:38;9.68;;;3.80;;
7523;SDS011;3803;51.666;7.630;2023-06-14T01:34:59;8.02;;;3.88;;
7523;SDS011;3803;51.666;7.630;2023-06-14T01:35:22;8.20;;;4.20;;
7523;SDS011;3803;51.666;7.630;2023-06-14T01:35:43;8.63;;;4.60;;
7523;SDS011;3803;51.666;7.630;2023-06-14T01:36:06;6.93;;;4.80;;
7523;SDS011;3803;51.666;7.630;2023-06-14T01:36:28;8.45;;;4.90;;
7523;SDS011;3803;51.666;7.630;2023-06-14T01:36:51;8.55;;;4.45;;
7523;SDS011;3803;51.666;7.630;2023-06-14T01:37:15;8.00;;;4.05;;
7523;SDS011;3803;51.666;7.630;2023-06-14T01:37:37;6.90;;;3.90;;
7523;SDS011;3803;51.666;7.630;2023-06-14T01:38:00;6.38;;;3.78;;
7523;SDS011;3803;51.666;7.630;2023-06-14T01:38:24;6.18;;;3.92;;
7523;SDS011;3803;51.666;7.630;2023-06-14T01:38:46;7.18;;;4.30;;
7523;SDS011;3803;51.666;7.630;2023-06-14T01:39:11;6.40;;;4.30;;
7523;SDS011;3803;51.666;7.630;2023-06-14T01:39:34;7.43;;;4.00;;
7523;SDS011;3803;51.666;7.630;2023-06-14T01:39:55;8.38;;;4.18;;
7523;SDS011;3803;51.666;7.630;2023-06-14T01:40:16;7.03;;;4.05;;
7523;SDS011;3803;51.666;7.630;2023-06-14T01:40:38;6.97;;;4.10;;
7523;SDS011;3803;51.666;7.630;2023-06-14T01:40:59;6.07;;;4.20;;
7523;SDS011;3803;51.666;7.630;2023-06-14T01:41:22;10.55;;;4.20;;
7523;SDS011;3803;51.666;7.630;2023-06-14T01:41:46;10.45;;;4.15;;
7523;SDS011;3803;51.666;7.630;2023-06-14T01:42:09;9.65;;;4.07;;
7523;SDS011;3803;51.666;7.630;2023-06-14T01:42:32;5.53;;;4.22;;
7523;SDS011;3803;51.666;7.630;2023-06-14T01:42:57;6.18;;;4.13;;
7523;SDS011;3803;51.666;7.630;2023-06-14T01:43:18;5.80;;;3.90;;
7523;SDS011;3803;51.666;7.630;2023-06-14T01:43:41;4.85;;;3.90;;
7523;SDS011;3803;51.666;7.630;2023-06-14T01:44:03;4.75;;;4.00;;
7523;SDS011;3803;51.666;7.630;2023-06-14T01:44:27;5.60;;;4.22;;
7523;SDS011;3803;51.666;7.630;2023-06-14T01:44:50;8.43;;;4.95;;
7523;SDS011;3803;51.666;7.630;2023-06-14T01:45:14;8.45;;;4.90;;
7523;SDS011;3803;51.666;7.630;2023-06-14T01:45:36;6.85;;;4.50;;
7523;SDS011;3803;51.666;7.630;2023-06-14T01:45:58;6.93;;;4.30;;
7523;SDS011;3803;51.666;7.630;2023-06-14T01:46:21;7.10;;;4.40;;
7523;SDS011;3803;51.666;7.630;2023-06-14T01:46:43;6.68;;;4.25;;
7523;SDS011;3803;51.666;7.630;2023-06-14T01:47:05;6.28;;;4.20;;
7523;SDS011;3803;51.666;7.630;2023-06-14T01:47:27;6.15;;;4.20;;
7523;SDS011;3803;51.666;7.630;2023-06-14T01:47:48;6.18;;;4.25;;
7523;SDS011;3803;51.666;7.630;2023-06-14T01:48:10;7.50;;;4.20;;
7523;SDS011;3803;51.666;7.630;2023-06-14T01:48:30;7.72;;;4.20;;
7523;SDS011;3803;51.666;7.630;2023-06-14T01:48:52;7.95;;;4.03;;
7523;SDS011;3803;51.666;7.630;2023-06-14T01:49:14;7.25;;;4.28;;
7523;SDS011;3803;51.666;7.630;2023-06-14T01:49:35;8.23;;;4.33;;
7523;SDS011;3803;51.666;7.630;2023-06-14T01:49:56;7.97;;;4.20;;
7523;SDS011;3803;51.666;7.630;2023-06-14T01:50:16;7.93;;;3.95;;
7523;SDS011;3803;51.666;7.630;2023-06-14T01:50:39;7.43;;;3.78;;
7523;SDS011;3803;51.666;7.630;2023-06-14T01:51:00;7.07;;;3.85;;
7523;SDS011;3803;51.666;7.630;2023-06-14T01:51:21;6.15;;;3.97;;
7523;SDS011;3803;51.666;7.630;2023-06-14T01:51:42;5.70;;;4.30;;
7523;SDS011;3803;51.666;7.630;2023-06-14T01:52:03;6.88;;;4.20;;
7523;SDS011;3803;51.666;7.630;2023-06-14T01:52:24;8.38;;;4.40;;
7523;SDS011;3803;51.666;7.630;2023-06-14T01:52:45;9.40;;;4.05;;
7523;SDS011;3803;51.666;7.630;2023-06-14T01:53:07;7.80;;;4.00;;
7523;SDS011;3803;51.666;7.630;2023-06-14T01:53:31;5.35;;;3.70;;
7523;SDS011;3803;51.666;7.630;2023-06-14T01:53:51;5.60;;;3.90;;
7523;SDS011;3803;51.666;7.630;2023-06-14T01:54:12;5.60;;;3.90;;
7523;SDS011;3803;51.666;7.630;2023-06-14T01:54:33;8.50;;;4.27;;
7523;SDS011;3803;51.666;7.630;2023-06-14T01:54:56;9.30;;;4.20;;
7523;SDS011;3803;51.666;7.630;2023-06-14T01:55:18;7.78;;;4.03;;
7523;SDS011;3803;51.666;7.630;2023-06-14T01:55:39;5.82;;;3.70;;
7523;SDS011;3803;51.666;7.630;2023-06-14T01:56:03;4.88;;;3.80;;
7523;SDS011;3803;51.666;7.630;2023-06-14T01:56:25;5.82;;;3.90;;
7523;SDS011;3803;51.666;7.630;2023-06-14T01:56:46;6.10;;;4.05;;
7523;SDS011;3803;51.666;7.630;2023-06-14T01:57:08;8.40;;;4.20;;
7523;SDS011;3803;51.666;7.630;2023-06-14T01:57:29;8.30;;;4.18;;
7523;SDS011;3803;51.666;7.630;2023-06-14T01:57:50;8.02;;;4.10;;
7523;SDS011;3803;51.666;7.630;2023-06-14T01:58:14;4.93;;;3.97;;
7523;SDS011;3803;51.666;7.630;2023-06-14T01:58:39;5.20;;;3.92;;
7523;SDS011;3803;51.666;7.630;2023-06-14T01:59:00;5.35;;;3.90;;
7523;SDS011;3803;51.666;7.630;2023-06-14T01:59:21;5.68;;;4.20;;
7523;SDS011;3803;51.666;7.630;2023-06-14T01:59:42;5.97;;;4.32;;
7523;SDS011;3803;51.666;7.630;2023-06-14T02:00:04;8.95;;;4.40;;
7523;SDS011;3803;51.666;7.630;2023-06-14T02:00:33;11.25;;;4.30;;
7523;SDS011;3803;51.666;7.630;2023-06-14T02:00:53;10.95;;;4.22;;
7523;SDS011;3803;51.666;7.630;2023-06-14T02:01:15;7.45;;;3.97;;
7523;SDS011;3803;51.666;7.630;2023-06-14T02:01:39;7.18;;;3.90;;
7523;SDS011;3803;51.666;7.630;2023-06-14T02:02:02;7.78;;;4.10;;
7523;SDS011;3803;51.666;7.630;2023-06-14T02:02:26;9.57;;;4.10;;
7523;SDS011;3803;51.666;7.630;2023-06-14T02:02:47;8.32;;;4.00;;
7523;SDS011;3803;51.666;7.630;2023-06-14T02:03:09;7.60;;;4.10;;
7523;SDS011;3803;51.666;7.630;2023-06-14T02:03:31;6.50;;;4.10;;
7523;SDS011;3803;51.666;7.630;2023-06-14T02:03:52;5.82;;;4.00;;
7523;SDS011;3803;51.666;7.630;2023-06-14T02:04:14;6.13;;;4.03;;
7523;SDS011;3803;51.666;7.630;2023-06-14T02:04:34;5.80;;;4.00;;
7523;SDS011;3803;51.666;7.630;2023-06-14T02:04:55;5.70;;;4.00;;
7523;SDS011;3803;51.666;7.630;2023-06-14T02:05:17;5.90;;;4.13;;
7523;SDS011;3803;51.666;7.630;2023-06-14T02:05:39;6.40;;;4.60;;
7523;SDS011;3803;51.666;7.630;2023-06-14T02:06:00;6.63;;;4.70;;
7523;SDS011;3803;51.666;7.630;2023-06-14T02:06:21;6.05;;;4.53;;
7523;SDS011;3803;51.666;7.630;2023-06-14T02:06:42;6.00;;;4.40;;
7523;SDS011;3803;51.666;7.630;2023-06-14T02:07:02;5.70;;;4.07;;
7523;SDS011;3803;51.666;7.630;2023-06-14T02:07:23;5.90;;;4.10;;
7523;SDS011;3803;51.666;7.630;2023-06-14T02:07:45;5.38;;;3.72;;
7523;SDS011;3803;51.666;7.630;2023-06-14T02:08:09;5.35;;;3.60;;
7523;SDS011;3803;51.666;7.630;2023-06-14T02:08:31;5.18;;;3.70;;
7523;SDS011;3803;51.666;7.630;2023-06-14T02:08:54;6.57;;;3.90;;
7523;SDS011;3803;51.666;7.630;2023-06-14T02:09:15;7.90;;;3.90;;
7523;SDS011;3803;51.666;7.630;2023-06-14T02:09:36;8.88;;;4.20;;
7523;SDS011;3803;51.666;7.630;2023-06-14T02:09:57;7.28;;;4.20;;
7523;SDS011;3803;51.666;7.630;2023-06-14T02:10:17;6.63;;;4.40;;
7523;SDS011;3803;51.666;7.630;2023-06-14T02:10:38;7.33;;;4.20;;
7523;SDS011;3803;51.666;7.630;2023-06-14T02:10:59;7.47;;;4.30;;
7523;SDS011;3803;51.666;7.630;2023-06-14T02:11:19;6.63;;;4.18;;
7523;SDS011;3803;51.666;7.630;2023-06-14T02:11:40;5.50;;;4.05;;
7523;SDS011;3803;51.666;7.630;2023-06-14T02:12:01;5.80;;;4.30;;
7523;SDS011;3803;51.666;7.630;2023-06-14T02:12:23;7.97;;;4.93;;
7523;SDS011;3803;51.666;7.630;2023-06-14T02:12:44;9.18;;;5.20;;
7523;SDS011;3803;51.666;7.630;2023-06-14T02:13:06;8.60;;;4.63;;
7523;SDS011;3803;51.666;7.630;2023-06-14T02:13:27;9.20;;;4.10;;
7523;SDS011;3803;51.666;7.630;2023-06-14T02:13:47;8.38;;;3.75;;
7523;SDS011;3803;51.666;7.630;2023-06-14T02:14:08;8.90;;;3.90;;
7523;SDS011;3803;51.666;7.630;2023-06-14T02:14:31;6.60;;;4.10;;
7523;SDS011;3803;51.666;7.630;2023-06-14T02:14:53;7.50;;;4.00;;
7523;SDS011;3803;51.666;7.630;2023-06-14T02:15:14;8.85;;;4.03;;
7523;SDS011;3803;51.666;7.630;2023-06-14T02:15:38;7.00;;;4.00;;
7523;SDS011;3803;51.666;7.630;2023-06-14T02:16:00;6.07;;;4.15;;
7523;SDS011;3803;51.666;7.630;2023-06-14T02:16:25;6.72;;;4.40;;
7523;SDS011;3803;51.666;7.630;2023-06-14T02:16:48;7.03;;;4.28;;
7523;SDS011;3803;51.666;7.630;2023-06-14T02:17:12;7.72;;;4.05;;
7523;SDS011;3803;51.666;7.630;2023-06-14T02:17:34;7.35;;;4.07;;
7523;SDS011;3803;51.666;7.630;2023-06-14T02:17:59;5.25;;;3.92;;
7523;SDS011;3803;51.666;7.630;2023-06-14T02:18:22;5.53;;;4.20;;
7523;SDS011;3803;51.666;7.630;2023-06-14T02:18:43;5.82;;;4.10;;
7523;SDS011;3803;51.666;7.630;2023-06-14T02:19:04;7.20;;;4.20;;
7523;SDS011;3803;51.666;7.630;2023-06-14T02:19:25;7.10;;;4.20;;
7523;SDS011;3803;51.666;7.630;2023-06-14T02:19:46;5.60;;;4.15;;
7523;SDS011;3803;51.666;7.630;2023-06-14T02:20:07;6.13;;;4.40;;
7523;SDS011;3803;51.666;7.630;2023-06-14T02:20:29;6.43;;;4.50;;
7523;SDS011;3803;51.666;7.630;2023-06-14T02:20:51;7.43;;;4.45;;
7523;SDS011;3803;51.666;7.630;2023-06-14T02:21:12;7.03;;;4.22;;